Terminal Aerodrome Forecast
Issued by NWS Blacksburg, VA

Home | Current Version | Previous Version | Text Only | Print | Product List | Glossary On
Versions: 1 2 3 4 5 6 7 8 9 10 11 12 13 14 15 16 17 18 19 20 21 22 23 24 25 26 27 28 29 30 31 32
000
FTUS41 KRNK 241141
TAFBLF
TAF
KBLF 241141Z 2412/2512 26004KT 3SM BR SCT003
      TEMPO 2412/2413 1SM BR BKN003
     FM241400 26004KT P6SM BKN025
     FM241700 28005KT P6SM VCTS BKN040CB
     FM242100 31007KT P6SM SCT050 BKN100
     FM250900 00000KT 3SM BR SCT001=

USA.gov is the U.S. government's official web portal to all federal, state and local government web resources and services.